sensor_id;sensor_type;location;lat;lon;timestamp;pressure;altitude;pressure_sealevel;temperature;humidity
967;BME280;56108;48.730;9.304;2023-09-19T00:01:18;97115.31;;;15.91;100.00
967;BME280;56108;48.730;9.304;2023-09-19T00:03:27;97117.53;;;15.96;100.00
967;BME280;56108;48.730;9.304;2023-09-19T00:05:37;97109.34;;;15.97;100.00
967;BME280;56108;48.730;9.304;2023-09-19T00:07:51;97119.78;;;16.00;100.00
967;BME280;56108;48.730;9.304;2023-09-19T00:10:00;97128.66;;;16.01;100.00
967;BME280;56108;48.730;9.304;2023-09-19T00:12:09;97136.16;;;15.97;100.00
967;BME280;56108;48.730;9.304;2023-09-19T00:14:18;97133.03;;;15.84;100.00
967;BME280;56108;48.730;9.304;2023-09-19T00:16:29;97121.34;;;15.75;100.00
967;BME280;56108;48.730;9.304;2023-09-19T00:18:38;97129.94;;;15.79;100.00
967;BME280;56108;48.730;9.304;2023-09-19T00:20:47;97134.63;;;15.77;100.00
967;BME280;56108;48.730;9.304;2023-09-19T00:22:57;97144.38;;;15.78;100.00
967;BME280;56108;48.730;9.304;2023-09-19T00:25:11;97148.72;;;15.79;100.00
967;BME280;56108;48.730;9.304;2023-09-19T00:27:23;97161.69;;;15.83;100.00
967;BME280;56108;48.730;9.304;2023-09-19T00:29:32;97161.97;;;15.80;100.00
967;BME280;56108;48.730;9.304;2023-09-19T00:31:43;97163.28;;;15.76;100.00
967;BME280;56108;48.730;9.304;2023-09-19T00:33:52;97171.72;;;15.81;100.00
967;BME280;56108;48.730;9.304;2023-09-19T00:36:03;97173.03;;;15.77;100.00
967;BME280;56108;48.730;9.304;2023-09-19T00:38:12;97157.22;;;15.74;100.00
967;BME280;56108;48.730;9.304;2023-09-19T00:40:22;97157.47;;;15.81;100.00
967;BME280;56108;48.730;9.304;2023-09-19T00:42:34;97168.06;;;15.82;100.00
967;BME280;56108;48.730;9.304;2023-09-19T00:44:43;97174.50;;;15.89;100.00
967;BME280;56108;48.730;9.304;2023-09-19T00:46:52;97176.34;;;15.89;100.00
967;BME280;56108;48.730;9.304;2023-09-19T00:49:01;97176.44;;;15.97;100.00
967;BME280;56108;48.730;9.304;2023-09-19T00:51:10;97180.81;;;15.98;100.00
967;BME280;56108;48.730;9.304;2023-09-19T00:53:21;97189.56;;;16.00;100.00
967;BME280;56108;48.730;9.304;2023-09-19T00:55:32;97189.84;;;15.97;100.00
967;BME280;56108;48.730;9.304;2023-09-19T00:57:42;97195.41;;;15.86;100.00
967;BME280;56108;48.730;9.304;2023-09-19T00:59:53;97190.00;;;15.96;100.00
967;BME280;56108;48.730;9.304;2023-09-19T01:02:03;97205.56;;;15.92;100.00
967;BME280;56108;48.730;9.304;2023-09-19T01:04:12;97206.56;;;15.91;100.00
967;BME280;56108;48.730;9.304;2023-09-19T01:06:22;97209.13;;;15.93;100.00
967;BME280;56108;48.730;9.304;2023-09-19T01:08:31;97211.28;;;16.07;100.00
967;BME280;56108;48.730;9.304;2023-09-19T01:10:48;97221.16;;;16.06;100.00
967;BME280;56108;48.730;9.304;2023-09-19T01:13:06;97226.00;;;16.03;100.00
967;BME280;56108;48.730;9.304;2023-09-19T01:15:23;97221.47;;;16.03;100.00
967;BME280;56108;48.730;9.304;2023-09-19T01:17:44;97231.41;;;16.21;100.00
967;BME280;56108;48.730;9.304;2023-09-19T01:20:18;97230.00;;;16.16;100.00
967;BME280;56108;48.730;9.304;2023-09-19T01:22:35;97231.47;;;16.11;100.00
967;BME280;56108;48.730;9.304;2023-09-19T01:25:06;97219.72;;;16.12;100.00
967;BME280;56108;48.730;9.304;2023-09-19T01:27:30;97225.81;;;16.14;100.00
967;BME280;56108;48.730;9.304;2023-09-19T01:29:49;97222.41;;;16.12;100.00
967;BME280;56108;48.730;9.304;2023-09-19T01:32:04;97224.84;;;16.05;100.00
967;BME280;56108;48.730;9.304;2023-09-19T01:34:12;97222.16;;;16.05;100.00
967;BME280;56108;48.730;9.304;2023-09-19T01:36:21;97223.13;;;16.14;100.00
967;BME280;56108;48.730;9.304;2023-09-19T01:38:29;97229.09;;;16.08;100.00
967;BME280;56108;48.730;9.304;2023-09-19T01:40:41;97230.38;;;16.04;100.00
967;BME280;56108;48.730;9.304;2023-09-19T01:42:57;97228.38;;;16.06;100.00
967;BME280;56108;48.730;9.304;2023-09-19T01:45:11;97231.06;;;16.06;100.00
967;BME280;56108;48.730;9.304;2023-09-19T01:47:31;97237.63;;;15.94;100.00
967;BME280;56108;48.730;9.304;2023-09-19T01:49:47;97232.50;;;16.00;100.00
967;BME280;56108;48.730;9.304;2023-09-19T01:52:04;97229.13;;;15.98;100.00
967;BME280;56108;48.730;9.304;2023-09-19T01:54:18;97234.19;;;16.01;100.00
967;BME280;56108;48.730;9.304;2023-09-19T01:56:31;97232.47;;;16.10;100.00
967;BME280;56108;48.730;9.304;2023-09-19T01:58:45;97236.53;;;16.14;100.00
967;BME280;56108;48.730;9.304;2023-09-19T02:00:56;97241.63;;;16.07;100.00
967;BME280;56108;48.730;9.304;2023-09-19T02:03:10;97240.84;;;15.97;100.00
967;BME280;56108;48.730;9.304;2023-09-19T02:05:23;97239.88;;;15.98;100.00
967;BME280;56108;48.730;9.304;2023-09-19T02:07:29;97243.09;;;16.02;100.00
967;BME280;56108;48.730;9.304;2023-09-19T02:09:38;97249.91;;;15.96;100.00
967;BME280;56108;48.730;9.304;2023-09-19T02:11:48;97245.53;;;15.95;100.00
967;BME280;56108;48.730;9.304;2023-09-19T02:13:56;97260.16;;;16.10;100.00
967;BME280;56108;48.730;9.304;2023-09-19T02:16:04;97257.66;;;15.99;100.00
967;BME280;56108;48.730;9.304;2023-09-19T02:18:19;97261.22;;;15.90;100.00
967;BME280;56108;48.730;9.304;2023-09-19T02:20:27;97260.78;;;15.95;100.00
967;BME280;56108;48.730;9.304;2023-09-19T02:22:38;97258.50;;;16.00;100.00
967;BME280;56108;48.730;9.304;2023-09-19T02:24:46;97260.94;;;15.93;100.00
967;BME280;56108;48.730;9.304;2023-09-19T02:26:56;97263.63;;;15.93;100.00
967;BME280;56108;48.730;9.304;2023-09-19T02:29:05;97269.00;;;15.93;100.00
967;BME280;56108;48.730;9.304;2023-09-19T02:31:18;97267.59;;;15.89;100.00
967;BME280;56108;48.730;9.304;2023-09-19T02:33:29;97269.28;;;15.90;100.00
967;BME280;56108;48.730;9.304;2023-09-19T02:35:38;97267.91;;;15.76;100.00
967;BME280;56108;48.730;9.304;2023-09-19T02:37:46;97260.56;;;15.78;100.00
967;BME280;56108;48.730;9.304;2023-09-19T02:39:55;97256.63;;;15.82;100.00
967;BME280;56108;48.730;9.304;2023-09-19T02:42:03;97256.94;;;15.70;100.00
967;BME280;56108;48.730;9.304;2023-09-19T02:44:12;97258.59;;;15.71;100.00
967;BME280;56108;48.730;9.304;2023-09-19T02:46:20;97248.47;;;15.64;100.00
967;BME280;56108;48.730;9.304;2023-09-19T02:48:31;97251.56;;;15.70;100.00
967;BME280;56108;48.730;9.304;2023-09-19T02:50:41;97255.97;;;15.61;100.00
967;BME280;56108;48.730;9.304;2023-09-19T02:52:49;97247.78;;;15.53;100.00
967;BME280;56108;48.730;9.304;2023-09-19T02:54:58;97247.53;;;15.46;100.00
967;BME280;56108;48.730;9.304;2023-09-19T02:57:07;97244.28;;;15.43;100.00
967;BME280;56108;48.730;9.304;2023-09-19T02:59:16;97236.69;;;15.28;100.00
967;BME280;56108;48.730;9.304;2023-09-19T03:01:25;97225.13;;;15.28;100.00
967;BME280;56108;48.730;9.304;2023-09-19T03:03:36;97233.72;;;15.31;100.00
967;BME280;56108;48.730;9.304;2023-09-19T03:05:46;97237.50;;;15.38;100.00
967;BME280;56108;48.730;9.304;2023-09-19T03:07:59;97242.00;;;15.48;100.00
967;BME280;56108;48.730;9.304;2023-09-19T03:10:09;97245.44;;;15.30;100.00
967;BME280;56108;48.730;9.304;2023-09-19T03:12:18;97242.34;;;15.35;100.00
967;BME280;56108;48.730;9.304;2023-09-19T03:14:26;97245.97;;;15.44;100.00
967;BME280;56108;48.730;9.304;2023-09-19T03:16:41;97250.91;;;15.48;100.00
967;BME280;56108;48.730;9.304;2023-09-19T03:18:54;97245.72;;;15.37;100.00
967;BME280;56108;48.730;9.304;2023-09-19T03:21:05;97242.28;;;15.45;100.00
967;BME280;56108;48.730;9.304;2023-09-19T03:23:13;97246.09;;;15.52;100.00
967;BME280;56108;48.730;9.304;2023-09-19T03:25:23;97252.31;;;15.52;100.00
967;BME280;56108;48.730;9.304;2023-09-19T03:27:33;97239.72;;;15.53;100.00
967;BME280;56108;48.730;9.304;2023-09-19T03:29:43;97242.97;;;15.56;100.00
967;BME280;56108;48.730;9.304;2023-09-19T03:31:51;97243.09;;;15.55;100.00
967;BME280;56108;48.730;9.304;2023-09-19T03:34:02;97244.22;;;15.62;100.00
967;BME280;56108;48.730;9.304;2023-09-19T03:36:12;97245.50;;;15.58;100.00
967;BME280;56108;48.730;9.304;2023-09-19T03:38:21;97243.81;;;15.57;100.00
967;BME280;56108;48.730;9.304;2023-09-19T03:40:27;97250.88;;;15.68;100.00
967;BME280;56108;48.730;9.304;2023-09-19T03:42:38;97254.13;;;15.61;100.00
967;BME280;56108;48.730;9.304;2023-09-19T03:44:50;97239.72;;;15.62;100.00
967;BME280;56108;48.730;9.304;2023-09-19T03:47:00;97252.16;;;15.63;100.00
967;BME280;56108;48.730;9.304;2023-09-19T03:49:12;97241.84;;;15.69;100.00
967;BME280;56108;48.730;9.304;2023-09-19T03:51:21;97246.34;;;15.68;100.00
967;BME280;56108;48.730;9.304;2023-09-19T03:53:29;97247.19;;;15.69;100.00
967;BME280;56108;48.730;9.304;2023-09-19T03:55:37;97247.47;;;15.65;100.00
967;BME280;56108;48.730;9.304;2023-09-19T03:57:47;97234.50;;;15.61;100.00
967;BME280;56108;48.730;9.304;2023-09-19T03:59:58;97252.56;;;15.59;100.00
967;BME280;56108;48.730;9.304;2023-09-19T04:02:16;97243.66;;;15.58;100.00
967;BME280;56108;48.730;9.304;2023-09-19T04:04:32;97249.47;;;15.63;100.00
967;BME280;56108;48.730;9.304;2023-09-19T04:06:41;97246.78;;;15.63;100.00
967;BME280;56108;48.730;9.304;2023-09-19T04:08:49;97244.09;;;15.63;100.00
967;BME280;56108;48.730;9.304;2023-09-19T04:10:57;97249.03;;;15.68;100.00
967;BME280;56108;48.730;9.304;2023-09-19T04:13:05;97257.34;;;15.75;100.00
967;BME280;56108;48.730;9.304;2023-09-19T04:15:14;97254.13;;;15.61;100.00
967;BME280;56108;48.730;9.304;2023-09-19T04:17:19;97250.72;;;15.59;100.00
967;BME280;56108;48.730;9.304;2023-09-19T04:19:32;97256.25;;;15.68;100.00
967;BME280;56108;48.730;9.304;2023-09-19T04:21:40;97254.69;;;15.55;100.00
967;BME280;56108;48.730;9.304;2023-09-19T04:23:48;97247.81;;;15.43;100.00
967;BME280;56108;48.730;9.304;2023-09-19T04:25:57;97247.97;;;15.42;100.00
967;BME280;56108;48.730;9.304;2023-09-19T04:28:05;97240.63;;;15.24;100.00
967;BME280;56108;48.730;9.304;2023-09-19T04:30:15;97238.97;;;15.23;100.00
967;BME280;56108;48.730;9.304;2023-09-19T04:32:28;97235.00;;;15.18;100.00
967;BME280;56108;48.730;9.304;2023-09-19T04:34:40;97241.13;;;15.10;100.00
967;BME280;56108;48.730;9.304;2023-09-19T04:36:48;97236.28;;;15.13;100.00
967;BME280;56108;48.730;9.304;2023-09-19T04:38:57;97232.34;;;15.08;100.00
967;BME280;56108;48.730;9.304;2023-09-19T04:41:10;97222.78;;;14.96;100.00
967;BME280;56108;48.730;9.304;2023-09-19T04:43:18;97233.19;;;15.08;100.00
967;BME280;56108;48.730;9.304;2023-09-19T04:45:27;97232.22;;;15.09;100.00
967;BME280;56108;48.730;9.304;2023-09-19T04:47:36;97225.03;;;15.10;100.00
967;BME280;56108;48.730;9.304;2023-09-19T04:49:48;97230.09;;;15.13;100.00
967;BME280;56108;48.730;9.304;2023-09-19T04:51:56;97238.00;;;15.14;100.00
967;BME280;56108;48.730;9.304;2023-09-19T04:54:05;97229.38;;;15.21;100.00
967;BME280;56108;48.730;9.304;2023-09-19T04:56:13;97230.22;;;15.31;100.00
967;BME280;56108;48.730;9.304;2023-09-19T04:58:21;97239.78;;;15.24;100.00
967;BME280;56108;48.730;9.304;2023-09-19T05:00:30;97243.72;;;15.29;100.00
967;BME280;56108;48.730;9.304;2023-09-19T05:02:40;97253.34;;;15.32;100.00
967;BME280;56108;48.730;9.304;2023-09-19T05:04:52;97247.97;;;15.32;100.00
967;BME280;56108;48.730;9.304;2023-09-19T05:07:01;97252.75;;;15.38;100.00
967;BME280;56108;48.730;9.304;2023-09-19T05:09:10;97262.78;;;15.46;100.00
967;BME280;56108;48.730;9.304;2023-09-19T05:11:19;97264.56;;;15.55;100.00
967;BME280;56108;48.730;9.304;2023-09-19T05:13:28;97277.97;;;15.55;100.00
967;BME280;56108;48.730;9.304;2023-09-19T05:15:36;97284.91;;;15.67;100.00
967;BME280;56108;48.730;9.304;2023-09-19T05:17:48;97295.22;;;15.72;100.00
967;BME280;56108;48.730;9.304;2023-09-19T05:20:05;97306.47;;;15.75;100.00
967;BME280;56108;48.730;9.304;2023-09-19T05:22:22;97306.44;;;15.85;100.00
967;BME280;56108;48.730;9.304;2023-09-19T05:24:30;97299.97;;;15.78;100.00
967;BME280;56108;48.730;9.304;2023-09-19T05:26:38;97294.91;;;15.75;100.00
967;BME280;56108;48.730;9.304;2023-09-19T05:28:47;97285.91;;;15.66;100.00
967;BME280;56108;48.730;9.304;2023-09-19T05:30:55;97276.88;;;15.67;100.00
967;BME280;56108;48.730;9.304;2023-09-19T05:33:04;97268.66;;;15.69;100.00
967;BME280;56108;48.730;9.304;2023-09-19T05:35:13;97256.94;;;15.70;100.00
967;BME280;56108;48.730;9.304;2023-09-19T05:37:22;97250.72;;;15.59;100.00
967;BME280;56108;48.730;9.304;2023-09-19T05:39:31;97238.06;;;15.42;100.00
967;BME280;56108;48.730;9.304;2023-09-19T05:41:40;97230.84;;;15.52;100.00
967;BME280;56108;48.730;9.304;2023-09-19T05:43:49;97223.81;;;15.42;100.00
967;BME280;56108;48.730;9.304;2023-09-19T05:45:59;97222.00;;;15.42;100.00
967;BME280;56108;48.730;9.304;2023-09-19T05:48:09;97209.25;;;15.44;100.00
967;BME280;56108;48.730;9.304;2023-09-19T05:50:21;97219.56;;;15.49;100.00
967;BME280;56108;48.730;9.304;2023-09-19T05:52:30;97232.31;;;15.37;100.00
967;BME280;56108;48.730;9.304;2023-09-19T05:54:38;97229.06;;;15.33;100.00
967;BME280;56108;48.730;9.304;2023-09-19T05:56:48;97224.50;;;15.44;100.00
967;BME280;56108;48.730;9.304;2023-09-19T05:58:58;97234.97;;;15.47;100.00
967;BME280;56108;48.730;9.304;2023-09-19T06:01:06;97232.69;;;15.52;100.00
967;BME280;56108;48.730;9.304;2023-09-19T06:03:15;97246.09;;;15.52;100.00
967;BME280;56108;48.730;9.304;2023-09-19T06:05:27;97242.41;;;15.53;100.00
967;BME280;56108;48.730;9.304;2023-09-19T06:07:37;97248.47;;;15.55;100.00
967;BME280;56108;48.730;9.304;2023-09-19T06:09:42;97251.72;;;15.58;100.00
967;BME280;56108;48.730;9.304;2023-09-19T06:11:51;97259.47;;;15.61;100.00
967;BME280;56108;48.730;9.304;2023-09-19T06:14:02;97264.28;;;15.58;100.00
967;BME280;56108;48.730;9.304;2023-09-19T06:16:11;97282.97;;;15.40;100.00
967;BME280;56108;48.730;9.304;2023-09-19T06:18:20;97285.75;;;15.48;100.00
967;BME280;56108;48.730;9.304;2023-09-19T06:20:34;97292.28;;;15.26;100.00
967;BME280;56108;48.730;9.304;2023-09-19T06:22:50;97291.72;;;15.13;100.00
967;BME280;56108;48.730;9.304;2023-09-19T06:24:59;97283.41;;;15.16;100.00
967;BME280;56108;48.730;9.304;2023-09-19T06:27:16;97284.56;;;15.04;100.00
967;BME280;56108;48.730;9.304;2023-09-19T06:29:24;97269.59;;;15.11;100.00
967;BME280;56108;48.730;9.304;2023-09-19T06:31:33;97271.44;;;15.20;100.00
967;BME280;56108;48.730;9.304;2023-09-19T06:33:41;97263.25;;;15.12;100.00
967;BME280;56108;48.730;9.304;2023-09-19T06:35:52;97258.72;;;15.12;100.00
967;BME280;56108;48.730;9.304;2023-09-19T06:38:04;97262.25;;;15.13;100.00
967;BME280;56108;48.730;9.304;2023-09-19T06:40:14;97265.78;;;15.13;100.00
967;BME280;56108;48.730;9.304;2023-09-19T06:42:23;97281.59;;;14.97;100.00
967;BME280;56108;48.730;9.304;2023-09-19T06:44:33;97284.53;;;15.13;100.00
967;BME280;56108;48.730;9.304;2023-09-19T06:46:41;97297.09;;;15.13;100.00
967;BME280;56108;48.730;9.304;2023-09-19T06:48:51;97301.44;;;15.24;100.00
967;BME280;56108;48.730;9.304;2023-09-19T06:51:03;97305.28;;;15.31;100.00
967;BME280;56108;48.730;9.304;2023-09-19T06:53:11;97307.38;;;15.37;100.00
967;BME280;56108;48.730;9.304;2023-09-19T06:55:20;97311.31;;;15.43;100.00
967;BME280;56108;48.730;9.304;2023-09-19T06:57:30;97324.88;;;15.41;100.00
967;BME280;56108;48.730;9.304;2023-09-19T06:59:39;97336.97;;;15.55;100.00
967;BME280;56108;48.730;9.304;2023-09-19T07:01:47;97352.97;;;15.66;100.00
967;BME280;56108;48.730;9.304;2023-09-19T07:03:56;97366.06;;;15.79;100.00
967;BME280;56108;48.730;9.304;2023-09-19T07:06:07;97387.50;;;15.88;100.00
967;BME280;56108;48.730;9.304;2023-09-19T07:08:14;97404.75;;;16.33;100.00
967;BME280;56108;48.730;9.304;2023-09-19T07:10:25;97420.75;;;16.72;100.00
967;BME280;56108;48.730;9.304;2023-09-19T07:12:34;97457.69;;;16.97;100.00
967;BME280;56108;48.730;9.304;2023-09-19T07:14:42;97470.88;;;17.54;100.00
967;BME280;56108;48.730;9.304;2023-09-19T07:16:51;97500.47;;;18.69;100.00
967;BME280;56108;48.730;9.304;2023-09-19T07:19:00;97527.56;;;19.36;100.00
967;BME280;56108;48.730;9.304;2023-09-19T07:21:11;97531.97;;;20.03;100.00
967;BME280;56108;48.730;9.304;2023-09-19T07:23:21;97537.56;;;20.34;100.00
967;BME280;56108;48.730;9.304;2023-09-19T07:25:31;97537.56;;;20.18;100.00
967;BME280;56108;48.730;9.304;2023-09-19T07:27:40;97535.69;;;19.94;100.00
967;BME280;56108;48.730;9.304;2023-09-19T07:29:48;97542.25;;;19.75;100.00
967;BME280;56108;48.730;9.304;2023-09-19T07:31:59;97539.84;;;19.72;100.00
967;BME280;56108;48.730;9.304;2023-09-19T07:34:08;97539.91;;;19.38;100.00
967;BME280;56108;48.730;9.304;2023-09-19T07:36:23;97530.41;;;19.26;100.00
967;BME280;56108;48.730;9.304;2023-09-19T07:38:35;97529.84;;;19.14;100.00
967;BME280;56108;48.730;9.304;2023-09-19T07:40:43;97538.41;;;19.01;100.00
967;BME280;56108;48.730;9.304;2023-09-19T07:42:52;97535.59;;;19.11;100.00
967;BME280;56108;48.730;9.304;2023-09-19T07:45:00;97545.38;;;19.20;100.00
967;BME280;56108;48.730;9.304;2023-09-19T07:47:09;97545.88;;;19.16;100.00
967;BME280;56108;48.730;9.304;2023-09-19T07:49:18;97545.44;;;19.28;100.00
967;BME280;56108;48.730;9.304;2023-09-19T07:51:30;97543.69;;;18.59;100.00
967;BME280;56108;48.730;9.304;2023-09-19T07:53:39;97546.31;;;19.03;100.00
967;BME280;56108;48.730;9.304;2023-09-19T07:55:47;97552.69;;;19.36;100.00
967;BME280;56108;48.730;9.304;2023-09-19T07:57:56;97556.16;;;19.54;100.00
967;BME280;56108;48.730;9.304;2023-09-19T08:00:06;97559.88;;;19.53;100.00
967;BME280;56108;48.730;9.304;2023-09-19T08:02:15;97556.81;;;19.48;100.00
967;BME280;56108;48.730;9.304;2023-09-19T08:04:23;97552.38;;;18.97;100.00
967;BME280;56108;48.730;9.304;2023-09-19T08:06:36;97558.66;;;19.06;100.00
967;BME280;56108;48.730;9.304;2023-09-19T08:08:44;97559.81;;;19.37;100.00
967;BME280;56108;48.730;9.304;2023-09-19T08:10:55;97563.00;;;19.41;100.00
967;BME280;56108;48.730;9.304;2023-09-19T08:13:04;97564.53;;;19.01;100.00
967;BME280;56108;48.730;9.304;2023-09-19T08:15:18;97564.50;;;19.27;100.00
967;BME280;56108;48.730;9.304;2023-09-19T08:17:26;97562.28;;;19.30;100.00
967;BME280;56108;48.730;9.304;2023-09-19T08:19:36;97571.47;;;19.46;100.00
967;BME280;56108;48.730;9.304;2023-09-19T08:21:50;97569.28;;;19.49;100.00
967;BME280;56108;48.730;9.304;2023-09-19T08:23:59;97569.91;;;19.69;100.00
967;BME280;56108;48.730;9.304;2023-09-19T08:26:09;97561.13;;;19.84;100.00
967;BME280;56108;48.730;9.304;2023-09-19T08:28:17;97565.22;;;19.79;100.00
967;BME280;56108;48.730;9.304;2023-09-19T08:30:29;97566.75;;;19.90;100.00
967;BME280;56108;48.730;9.304;2023-09-19T08:32:39;97569.66;;;20.05;100.00
967;BME280;56108;48.730;9.304;2023-09-19T08:34:48;97569.97;;;20.02;100.00
967;BME280;56108;48.730;9.304;2023-09-19T08:36:59;97566.38;;;19.77;100.00
967;BME280;56108;48.730;9.304;2023-09-19T08:39:08;97573.84;;;19.91;100.00
967;BME280;56108;48.730;9.304;2023-09-19T08:41:17;97575.06;;;20.05;100.00
967;BME280;56108;48.730;9.304;2023-09-19T08:43:26;97575.03;;;20.13;100.00
967;BME280;56108;48.730;9.304;2023-09-19T08:45:35;97575.06;;;20.21;100.00
967;BME280;56108;48.730;9.304;2023-09-19T08:47:46;97583.53;;;20.26;100.00
967;BME280;56108;48.730;9.304;2023-09-19T08:50:00;97583.16;;;20.29;100.00
967;BME280;56108;48.730;9.304;2023-09-19T08:52:27;97585.13;;;19.87;100.00
967;BME280;56108;48.730;9.304;2023-09-19T08:54:38;97588.34;;;19.90;100.00
967;BME280;56108;48.730;9.304;2023-09-19T08:56:50;97583.66;;;20.00;100.00
967;BME280;56108;48.730;9.304;2023-09-19T08:59:03;97591.59;;;20.10;100.00
967;BME280;56108;48.730;9.304;2023-09-19T09:01:15;97587.16;;;19.93;100.00
967;BME280;56108;48.730;9.304;2023-09-19T09:03:32;97588.22;;;20.00;100.00
967;BME280;56108;48.730;9.304;2023-09-19T09:05:43;97598.06;;;19.67;100.00
967;BME280;56108;48.730;9.304;2023-09-19T09:07:55;97590.78;;;19.59;100.00
967;BME280;56108;48.730;9.304;2023-09-19T09:10:06;97594.38;;;19.34;100.00
967;BME280;56108;48.730;9.304;2023-09-19T09:12:14;97590.78;;;19.59;100.00
967;BME280;56108;48.730;9.304;2023-09-19T09:14:22;97594.53;;;19.66;100.00
967;BME280;56108;48.730;9.304;2023-09-19T09:16:32;97594.78;;;19.97;100.00
967;BME280;56108;48.730;9.304;2023-09-19T09:18:41;97597.69;;;20.28;100.00
967;BME280;56108;48.730;9.304;2023-09-19T09:20:49;97605.66;;;20.71;98.98
967;BME280;56108;48.730;9.304;2023-09-19T09:23:01;97608.84;;;21.07;95.92
967;BME280;56108;48.730;9.304;2023-09-19T09:25:10;97606.00;;;21.00;95.31
967;BME280;56108;48.730;9.304;2023-09-19T09:27:19;97598.00;;;21.15;92.22
967;BME280;56108;48.730;9.304;2023-09-19T09:29:47;97606.50;;;20.96;91.45
967;BME280;56108;48.730;9.304;2023-09-19T09:32:16;97612.34;;;21.24;88.93
967;BME280;56108;48.730;9.304;2023-09-19T09:34:32;97610.75;;;21.54;82.49
967;BME280;56108;48.730;9.304;2023-09-19T09:36:41;97616.75;;;21.80;80.58
967;BME280;56108;48.730;9.304;2023-09-19T09:38:52;97619.09;;;22.46;76.92
967;BME280;56108;48.730;9.304;2023-09-19T09:41:01;97647.66;;;23.17;64.12
967;BME280;56108;48.730;9.304;2023-09-19T09:43:25;97672.09;;;24.50;59.19
967;BME280;56108;48.730;9.304;2023-09-19T09:45:33;97667.63;;;25.63;58.15
967;BME280;56108;48.730;9.304;2023-09-19T09:47:53;97692.88;;;26.54;54.21
967;BME280;56108;48.730;9.304;2023-09-19T09:50:02;97682.84;;;26.74;54.30
967;BME280;56108;48.730;9.304;2023-09-19T09:52:22;97694.63;;;26.75;51.05
967;BME280;56108;48.730;9.304;2023-09-19T09:54:35;97682.84;;;26.68;53.07
967;BME280;56108;48.730;9.304;2023-09-19T09:56:54;97703.69;;;26.95;47.78
967;BME280;56108;48.730;9.304;2023-09-19T09:59:04;97700.91;;;26.75;48.72
967;BME280;56108;48.730;9.304;2023-09-19T10:01:14;97702.06;;;26.46;49.08
967;BME280;56108;48.730;9.304;2023-09-19T10:03:31;97709.31;;;26.80;47.03
967;BME280;56108;48.730;9.304;2023-09-19T10:05:44;97720.28;;;27.00;44.77
967;BME280;56108;48.730;9.304;2023-09-19T10:07:53;97716.56;;;27.21;45.11
967;BME280;56108;48.730;9.304;2023-09-19T10:10:09;97708.78;;;27.38;44.32
967;BME280;56108;48.730;9.304;2023-09-19T10:12:21;97708.97;;;27.50;44.14
967;BME280;56108;48.730;9.304;2023-09-19T10:14:30;97702.41;;;26.30;44.85
967;BME280;56108;48.730;9.304;2023-09-19T10:16:41;97704.50;;;25.59;46.68
967;BME280;56108;48.730;9.304;2023-09-19T10:18:55;97709.28;;;26.19;45.97
967;BME280;56108;48.730;9.304;2023-09-19T10:21:05;97692.50;;;25.74;47.19
967;BME280;56108;48.730;9.304;2023-09-19T10:23:17;97702.28;;;26.45;45.09
967;BME280;56108;48.730;9.304;2023-09-19T10:25:31;97702.16;;;26.25;43.46
967;BME280;56108;48.730;9.304;2023-09-19T10:27:42;97695.69;;;26.26;45.50
967;BME280;56108;48.730;9.304;2023-09-19T10:29:51;97700.50;;;26.85;44.40
967;BME280;56108;48.730;9.304;2023-09-19T10:32:03;97698.81;;;26.16;43.68
967;BME280;56108;48.730;9.304;2023-09-19T10:34:14;97698.47;;;25.91;44.75
967;BME280;56108;48.730;9.304;2023-09-19T10:36:24;97704.34;;;25.67;44.34
967;BME280;56108;48.730;9.304;2023-09-19T10:38:33;97680.66;;;25.95;46.84
967;BME280;56108;48.730;9.304;2023-09-19T10:40:52;97688.59;;;25.62;46.47
967;BME280;56108;48.730;9.304;2023-09-19T10:43:03;97690.28;;;25.07;46.70
967;BME280;56108;48.730;9.304;2023-09-19T10:45:13;97687.78;;;24.91;46.92
967;BME280;56108;48.730;9.304;2023-09-19T10:47:25;97677.22;;;24.09;48.02
967;BME280;56108;48.730;9.304;2023-09-19T10:49:33;97674.84;;;24.20;49.03
967;BME280;56108;48.730;9.304;2023-09-19T10:51:43;97682.88;;;24.07;47.77
967;BME280;56108;48.730;9.304;2023-09-19T10:53:52;97670.16;;;23.26;50.23
967;BME280;56108;48.730;9.304;2023-09-19T10:56:06;97670.31;;;22.86;51.70
967;BME280;56108;48.730;9.304;2023-09-19T10:58:27;97657.13;;;22.60;53.99
967;BME280;56108;48.730;9.304;2023-09-19T11:00:53;97666.41;;;22.12;54.22
967;BME280;56108;48.730;9.304;2023-09-19T11:03:17;97663.00;;;21.71;54.06
967;BME280;56108;48.730;9.304;2023-09-19T11:05:25;97640.69;;;22.00;54.98
967;BME280;56108;48.730;9.304;2023-09-19T11:07:56;97645.09;;;22.01;56.19
967;BME280;56108;48.730;9.304;2023-09-19T11:10:45;97642.00;;;22.12;56.00
967;BME280;56108;48.730;9.304;2023-09-19T11:12:57;97642.06;;;21.96;55.13
967;BME280;56108;48.730;9.304;2023-09-19T11:15:09;97634.13;;;21.94;55.77
967;BME280;56108;48.730;9.304;2023-09-19T11:17:42;97633.50;;;21.84;56.18
967;BME280;56108;48.730;9.304;2023-09-19T11:20:19;97633.72;;;21.66;58.26
967;BME280;56108;48.730;9.304;2023-09-19T11:25:43;97634.97;;;21.95;55.68
967;BME280;56108;48.730;9.304;2023-09-19T11:30:41;97614.91;;;22.12;57.55
967;BME280;56108;48.730;9.304;2023-09-19T11:33:17;97614.38;;;22.17;55.42
967;BME280;56108;48.730;9.304;2023-09-19T11:35:58;97625.53;;;22.45;55.18
967;BME280;56108;48.730;9.304;2023-09-19T11:38:08;97621.25;;;22.27;54.36
967;BME280;56108;48.730;9.304;2023-09-19T11:40:16;97617.78;;;22.19;55.28
967;BME280;56108;48.730;9.304;2023-09-19T11:42:42;97618.53;;;21.96;55.76
967;BME280;56108;48.730;9.304;2023-09-19T11:44:59;97610.88;;;22.00;56.39
967;BME280;56108;48.730;9.304;2023-09-19T11:47:10;97612.22;;;22.04;57.59
967;BME280;56108;48.730;9.304;2023-09-19T11:49:24;97616.38;;;22.23;58.52
967;BME280;56108;48.730;9.304;2023-09-19T11:51:40;97610.81;;;22.08;54.97
967;BME280;56108;48.730;9.304;2023-09-19T11:53:51;97606.13;;;22.33;55.89